createdAt,value
2018-11-01T00:00:34.052Z,6.70
2018-11-01T00:03:02.240Z,6.80
2018-11-01T00:05:30.405Z,6.80
2018-11-01T00:07:58.526Z,6.80
2018-11-01T00:10:26.633Z,6.80
2018-11-01T00:12:54.800Z,6.90
2018-11-01T00:15:23.001Z,6.90
2018-11-01T00:17:51.145Z,6.90
2018-11-01T00:20:19.364Z,7.00
2018-11-01T00:22:47.505Z,7.10
2018-11-01T00:25:15.725Z,7.10
2018-11-01T00:27:43.995Z,7.10
2018-11-01T00:30:12.241Z,7.00
2018-11-01T00:32:40.381Z,7.00
2018-11-01T00:35:09.146Z,7.00
2018-11-01T00:37:37.275Z,6.90
2018-11-01T00:40:08.897Z,6.90
2018-11-01T00:42:36.992Z,6.90
2018-11-01T00:45:06.119Z,6.90
2018-11-01T00:47:34.229Z,6.80
2018-11-01T00:50:02.406Z,6.80
2018-11-01T00:52:30.537Z,6.80
2018-11-01T00:54:58.760Z,6.80
2018-11-01T00:57:26.957Z,6.90
2018-11-01T00:59:55.173Z,6.80
2018-11-01T01:02:23.341Z,6.80
2018-11-01T01:04:51.464Z,6.80
2018-11-01T01:07:19.680Z,6.80
2018-11-01T01:09:47.932Z,6.70
2018-11-01T01:12:16.048Z,6.60
2018-11-01T01:14:44.401Z,6.50
2018-11-01T01:17:12.513Z,6.40
2018-11-01T01:19:40.650Z,6.30
2018-11-01T01:22:08.796Z,6.30
2018-11-01T01:24:36.931Z,6.30
2018-11-01T01:27:05.041Z,6.40
2018-11-01T01:29:33.177Z,6.40
2018-11-01T01:32:01.403Z,6.50
2018-11-01T01:34:29.592Z,6.50
2018-11-01T01:36:57.654Z,6.50
2018-11-01T01:39:25.892Z,6.50
2018-11-01T01:41:54.116Z,6.50
2018-11-01T01:44:22.227Z,6.40
2018-11-01T01:46:50.350Z,6.40
2018-11-01T01:49:18.481Z,6.30
2018-11-01T01:51:46.659Z,6.30
2018-11-01T01:54:14.772Z,6.40
2018-11-01T01:56:42.996Z,6.40
2018-11-01T01:59:11.692Z,6.30
2018-11-01T02:01:39.837Z,6.30
2018-11-01T02:04:08.007Z,6.30
2018-11-01T02:06:36.322Z,6.30
2018-11-01T02:09:06.657Z,6.30
2018-11-01T02:11:34.801Z,6.30
2018-11-01T02:14:02.919Z,6.30
2018-11-01T02:16:31.090Z,6.40
2018-11-01T02:18:59.609Z,6.40
2018-11-01T02:21:27.723Z,6.30
2018-11-01T02:23:55.902Z,6.30
2018-11-01T02:26:24.029Z,6.20
2018-11-01T02:28:52.213Z,6.20
2018-11-01T02:31:20.364Z,6.20
2018-11-01T02:33:48.557Z,6.20
2018-11-01T02:36:16.763Z,6.20
2018-11-01T02:38:45.094Z,6.30
2018-11-01T02:41:13.197Z,6.40
2018-11-01T02:43:41.257Z,6.50
2018-11-01T02:46:09.373Z,6.50
2018-11-01T02:48:37.642Z,6.50
2018-11-01T02:51:05.717Z,6.50
2018-11-01T02:53:33.957Z,6.40
2018-11-01T02:56:02.036Z,6.50
2018-11-01T02:58:30.118Z,6.50
2018-11-01T03:00:58.215Z,6.40
2018-11-01T03:03:26.413Z,6.40
2018-11-01T03:05:54.495Z,6.40
2018-11-01T03:08:22.664Z,6.50
2018-11-01T03:10:50.765Z,6.40
2018-11-01T03:13:18.853Z,6.40
2018-11-01T03:15:46.953Z,6.40
2018-11-01T03:18:15.125Z,6.40
2018-11-01T03:20:43.202Z,6.40
2018-11-01T03:23:11.396Z,6.50
2018-11-01T03:25:39.494Z,6.50
2018-11-01T03:28:07.583Z,6.40
2018-11-01T03:30:35.687Z,6.40
2018-11-01T03:33:03.845Z,6.40
2018-11-01T03:35:31.938Z,6.40
2018-11-01T03:38:00.095Z,6.50
2018-11-01T03:40:28.121Z,6.40
2018-11-01T03:42:56.180Z,6.30
2018-11-01T03:45:24.296Z,6.30
2018-11-01T03:47:52.428Z,6.30
2018-11-01T03:50:20.525Z,6.10
2018-11-01T03:52:48.609Z,6.10
2018-11-01T03:55:16.712Z,6.00
2018-11-01T03:57:44.799Z,5.90
2018-11-01T04:00:15.034Z,5.80
2018-11-01T04:02:44.013Z,5.70
2018-11-01T04:05:12.169Z,5.60
2018-11-01T04:07:40.529Z,5.50
2018-11-01T04:10:09.620Z,5.50
2018-11-01T04:12:37.825Z,5.40
2018-11-01T04:15:07.965Z,5.30
2018-11-01T04:17:36.158Z,5.30
2018-11-01T04:20:04.634Z,5.30
2018-11-01T04:22:32.728Z,5.20
2018-11-01T04:25:00.868Z,5.20
2018-11-01T04:27:28.965Z,5.20
2018-11-01T04:29:57.515Z,5.30
2018-11-01T04:32:25.577Z,5.30
2018-11-01T04:34:53.660Z,5.40
2018-11-01T04:37:21.748Z,5.40
2018-11-01T04:39:49.852Z,5.40
2018-11-01T04:42:18.100Z,5.40
2018-11-01T04:44:46.221Z,5.40
2018-11-01T04:47:15.157Z,5.30
2018-11-01T04:49:43.208Z,5.30
2018-11-01T04:52:11.285Z,5.40
2018-11-01T04:54:39.381Z,5.50
2018-11-01T04:57:07.512Z,5.40
2018-11-01T04:59:35.592Z,5.40
2018-11-01T05:02:03.664Z,5.50
2018-11-01T05:04:31.757Z,5.50
2018-11-01T05:06:59.928Z,5.60
2018-11-01T05:09:28.144Z,5.60
2018-11-01T05:11:56.253Z,5.50
2018-11-01T05:14:24.394Z,5.50
2018-11-01T05:16:52.592Z,5.40
2018-11-01T05:19:20.743Z,5.40
2018-11-01T05:21:48.868Z,5.30
2018-11-01T05:24:17.097Z,5.30
2018-11-01T05:26:45.293Z,5.20
2018-11-01T05:29:13.820Z,5.20
2018-11-01T05:31:41.937Z,5.20
2018-11-01T05:34:10.184Z,5.10
2018-11-01T05:36:38.289Z,5.00
2018-11-01T05:39:08.461Z,5.00
2018-11-01T05:41:36.704Z,5.00
2018-11-01T05:44:05.060Z,4.90
2018-11-01T05:46:33.217Z,4.90
2018-11-01T05:49:01.393Z,4.90
2018-11-01T05:51:29.696Z,4.90
2018-11-01T05:53:57.780Z,4.80
2018-11-01T05:56:25.927Z,4.80
2018-11-01T05:58:54.036Z,4.90
2018-11-01T06:01:27.724Z,4.90
2018-11-01T06:03:55.836Z,4.90
2018-11-01T06:06:24.017Z,4.90
2018-11-01T06:08:52.164Z,4.90
2018-11-01T06:11:20.252Z,5.00
2018-11-01T06:13:48.338Z,4.90
2018-11-01T06:16:16.520Z,4.90
2018-11-01T06:18:44.617Z,4.90
2018-11-01T06:21:12.785Z,4.90
2018-11-01T06:23:40.840Z,4.80
2018-11-01T06:26:08.920Z,4.80
2018-11-01T06:28:37.000Z,4.80
2018-11-01T06:31:05.212Z,4.80
2018-11-01T06:33:33.328Z,4.70
2018-11-01T06:36:05.779Z,4.80
2018-11-01T06:38:33.892Z,4.80
2018-11-01T06:41:01.960Z,4.80
2018-11-01T06:43:30.101Z,4.80
2018-11-01T06:45:58.200Z,4.80
2018-11-01T06:48:26.267Z,4.80
2018-11-01T06:50:54.352Z,4.80
2018-11-01T06:53:22.440Z,4.80
2018-11-01T06:55:50.512Z,4.80
2018-11-01T06:58:18.782Z,4.90
2018-11-01T07:00:46.832Z,4.90
2018-11-01T07:03:14.976Z,4.90
2018-11-01T07:05:43.180Z,5.00
2018-11-01T07:08:11.176Z,5.00
2018-11-01T07:10:39.378Z,5.00
2018-11-01T07:13:07.499Z,5.00
2018-11-01T07:15:35.624Z,5.10
2018-11-01T07:18:03.740Z,5.10
2018-11-01T07:20:31.827Z,5.20
2018-11-01T07:22:59.917Z,5.30
2018-11-01T07:25:28.176Z,5.40
2018-11-01T07:27:56.157Z,5.50
2018-11-01T07:30:24.313Z,5.50
2018-11-01T07:32:52.439Z,5.60
2018-11-01T07:35:20.482Z,5.70
2018-11-01T07:37:48.552Z,5.70
2018-11-01T07:40:17.726Z,5.90
2018-11-01T07:42:45.840Z,5.90
2018-11-01T07:45:14.324Z,6.10
2018-11-01T07:47:43.441Z,6.20
2018-11-01T07:50:12.418Z,6.20
2018-11-01T07:52:41.091Z,6.40
2018-11-01T07:55:11.424Z,6.40
2018-11-01T07:57:39.607Z,6.40
2018-11-01T08:00:16.405Z,6.50
2018-11-01T08:02:45.502Z,6.50
2018-11-01T08:05:13.880Z,6.60
2018-11-01T08:07:42.353Z,6.60
2018-11-01T08:10:12.996Z,6.70
2018-11-01T08:12:42.176Z,6.70
2018-11-01T08:15:12.710Z,6.80
2018-11-01T08:17:40.980Z,6.80
2018-11-01T08:20:10.441Z,6.80
2018-11-01T08:22:38.414Z,6.90
2018-11-01T08:25:06.606Z,6.90
2018-11-01T08:27:34.716Z,7.00
2018-11-01T08:30:02.814Z,7.00
2018-11-01T08:32:30.921Z,7.00
2018-11-01T08:34:59.612Z,7.10
2018-11-01T08:37:27.969Z,7.10
2018-11-01T08:39:56.080Z,7.20
2018-11-01T08:42:24.215Z,7.20
2018-11-01T08:44:52.425Z,7.30
2018-11-01T08:47:20.536Z,7.30
2018-11-01T08:49:48.661Z,7.40
2018-11-01T08:52:16.778Z,7.40
2018-11-01T08:54:44.881Z,7.50
2018-11-01T08:57:13.101Z,7.50
2018-11-01T08:59:41.241Z,7.60
2018-11-01T09:02:09.384Z,7.60
2018-11-01T09:04:37.492Z,7.70
2018-11-01T09:07:06.000Z,7.80
2018-11-01T09:09:34.177Z,7.80
2018-11-01T09:12:02.366Z,7.80
2018-11-01T09:14:30.468Z,7.90
2018-11-01T09:16:58.568Z,7.90
2018-11-01T09:19:26.810Z,8.00
2018-11-01T09:21:54.878Z,8.00
2018-11-01T09:24:22.941Z,8.10
2018-11-01T09:26:51.122Z,8.20
2018-11-01T09:29:19.180Z,8.30
2018-11-01T09:31:47.240Z,8.30
2018-11-01T09:34:15.339Z,8.30
2018-11-01T09:36:43.553Z,8.40
2018-11-01T09:40:01.309Z,8.50
2018-11-01T09:42:29.388Z,8.50
2018-11-01T09:44:57.486Z,8.50
2018-11-01T09:47:25.947Z,8.50
2018-11-01T09:49:53.709Z,8.60
2018-11-01T09:52:21.813Z,8.60
2018-11-01T09:54:49.951Z,8.60
2018-11-01T09:57:18.080Z,8.70
2018-11-01T09:59:46.237Z,8.70
2018-11-01T10:02:14.298Z,8.70
2018-11-01T10:04:42.442Z,8.70
2018-11-01T10:07:10.636Z,8.70
2018-11-01T10:09:38.658Z,8.70
2018-11-01T10:12:06.724Z,8.70
2018-11-01T10:14:34.968Z,8.60
2018-11-01T10:17:03.316Z,8.50
2018-11-01T10:19:31.124Z,8.40
2018-11-01T10:21:59.415Z,8.30
2018-11-01T10:24:27.446Z,8.30
2018-11-01T10:26:55.541Z,8.40
2018-11-01T10:29:23.730Z,8.40
2018-11-01T10:31:51.781Z,8.40
2018-11-01T10:34:19.912Z,8.40
2018-11-01T10:36:48.006Z,8.50
2018-11-01T10:39:16.096Z,8.50
2018-11-01T10:41:44.170Z,8.50
2018-11-01T10:44:12.353Z,8.50
2018-11-01T10:46:40.412Z,8.50
2018-11-01T10:49:08.768Z,8.50
2018-11-01T10:51:36.904Z,8.50
2018-11-01T10:54:05.158Z,8.50
2018-11-01T10:56:33.295Z,8.50
2018-11-01T10:59:01.472Z,8.50
2018-11-01T11:01:34.884Z,8.60
2018-11-01T11:04:03.268Z,8.60
2018-11-01T11:06:31.427Z,8.60
2018-11-01T11:08:59.499Z,8.60
2018-11-01T11:11:27.676Z,8.60
2018-11-01T11:13:55.813Z,8.50
2018-11-01T11:16:24.130Z,8.50
2018-11-01T11:18:52.226Z,8.50
2018-11-01T11:21:20.436Z,8.40
2018-11-01T11:23:48.928Z,8.40
2018-11-01T11:26:17.270Z,8.40
2018-11-01T11:28:45.381Z,8.40
2018-11-01T11:31:14.497Z,8.40
2018-11-01T11:33:42.917Z,8.40
2018-11-01T11:36:11.188Z,8.50
2018-11-01T11:38:39.581Z,8.50
2018-11-01T11:41:07.704Z,8.60
2018-11-01T11:43:35.968Z,8.80
2018-11-01T11:46:04.259Z,8.80
2018-11-01T11:48:32.293Z,8.90
2018-11-01T11:51:00.403Z,8.90
2018-11-01T11:53:28.569Z,8.90
2018-11-01T11:55:56.691Z,9.00
2018-11-01T11:58:24.799Z,9.20
2018-11-01T12:00:52.919Z,9.30
2018-11-01T12:03:21.013Z,9.50
2018-11-01T12:05:49.248Z,9.60
2018-11-01T12:08:17.408Z,9.60
2018-11-01T12:10:45.540Z,9.60
2018-11-01T12:13:13.635Z,9.50
2018-11-01T12:15:41.829Z,9.50
2018-11-01T12:18:09.978Z,9.30
2018-11-01T12:20:38.276Z,9.30
2018-11-01T12:23:06.372Z,9.20
2018-11-01T12:25:34.561Z,9.20
2018-11-01T12:28:02.643Z,9.20
2018-11-01T12:30:30.721Z,9.30
2018-11-01T12:32:58.825Z,9.30
2018-11-01T12:35:27.107Z,9.30
2018-11-01T12:37:55.238Z,9.40
2018-11-01T12:40:23.336Z,9.40
2018-11-01T12:42:51.451Z,9.50
2018-11-01T12:45:19.599Z,9.60
2018-11-01T12:47:47.736Z,9.50
2018-11-01T12:50:16.096Z,9.60
2018-11-01T12:52:44.073Z,9.60
2018-11-01T12:55:12.397Z,9.70
2018-11-01T12:57:40.514Z,9.80
2018-11-01T13:00:10.240Z,9.90
2018-11-01T13:02:38.501Z,9.90
2018-11-01T13:05:06.679Z,10.00
2018-11-01T13:07:34.796Z,10.00
2018-11-01T13:10:03.029Z,10.10
2018-11-01T13:12:31.132Z,10.10
2018-11-01T13:14:59.295Z,10.10
2018-11-01T13:17:27.432Z,10.10
2018-11-01T13:19:55.652Z,10.20
2018-11-01T13:22:23.777Z,10.20
2018-11-01T13:24:52.184Z,10.30
2018-11-01T13:27:20.461Z,10.30
2018-11-01T13:29:48.617Z,10.30
2018-11-01T13:32:16.974Z,10.40
2018-11-01T13:34:45.161Z,10.30
2018-11-01T13:37:13.317Z,10.20
2018-11-01T13:39:41.533Z,10.20
2018-11-01T13:42:09.549Z,10.20
2018-11-01T13:44:38.108Z,10.20
2018-11-01T13:47:06.405Z,10.10
2018-11-01T13:49:34.484Z,10.00
2018-11-01T13:52:02.717Z,10.00
2018-11-01T13:54:30.840Z,9.90
2018-11-01T13:56:58.893Z,9.90
2018-11-01T13:59:26.968Z,9.90
2018-11-01T14:01:55.077Z,9.90
2018-11-01T14:04:23.140Z,9.90
2018-11-01T14:06:51.264Z,9.90
2018-11-01T14:09:19.369Z,10.00
2018-11-01T14:11:47.513Z,10.00
2018-11-01T14:14:15.969Z,10.10
2018-11-01T14:16:43.808Z,10.20
2018-11-01T14:19:11.889Z,10.20
2018-11-01T14:21:40.094Z,10.20
2018-11-01T14:24:08.337Z,10.20
2018-11-01T14:26:36.548Z,10.30
2018-11-01T14:29:04.913Z,10.30
2018-11-01T14:31:33.028Z,10.30
2018-11-01T14:34:01.128Z,10.40
2018-11-01T14:36:29.307Z,10.40
2018-11-01T14:38:57.396Z,10.40
2018-11-01T14:41:25.479Z,10.50
2018-11-01T14:43:53.592Z,10.40
2018-11-01T14:46:21.792Z,10.30
2018-11-01T14:48:50.033Z,10.20
2018-11-01T14:51:18.259Z,10.20
2018-11-01T14:53:46.538Z,10.40
2018-11-01T14:56:15.727Z,10.50
2018-11-01T14:58:43.659Z,10.50
2018-11-01T15:01:10.852Z,10.50
2018-11-01T15:03:38.957Z,10.40
2018-11-01T15:06:07.136Z,10.20
2018-11-01T15:08:35.272Z,10.20
2018-11-01T15:11:03.331Z,10.10
2018-11-01T15:13:31.504Z,10.00
2018-11-01T15:15:59.772Z,10.00
2018-11-01T15:18:27.951Z,9.90
2018-11-01T15:20:56.133Z,9.80
2018-11-01T15:23:24.215Z,9.80
2018-11-01T15:25:52.289Z,9.80
2018-11-01T15:28:20.603Z,9.70
2018-11-01T15:30:48.797Z,9.70
2018-11-01T15:33:16.892Z,9.70
2018-11-01T15:35:45.136Z,9.70
2018-11-01T15:38:13.282Z,9.70
2018-11-01T15:40:41.402Z,9.70
2018-11-01T15:43:09.544Z,9.50
2018-11-01T15:45:37.653Z,9.40
2018-11-01T15:48:05.804Z,9.20
2018-11-01T15:50:33.948Z,9.10
2018-11-01T15:53:02.025Z,9.00
2018-11-01T15:55:30.261Z,8.90
2018-11-01T15:57:58.348Z,8.80
2018-11-01T16:00:26.456Z,8.60
2018-11-01T16:02:54.643Z,8.50
2018-11-01T16:05:22.714Z,8.50
2018-11-01T16:07:50.908Z,8.60
2018-11-01T16:10:19.056Z,8.60
2018-11-01T16:12:47.226Z,8.70
2018-11-01T16:15:16.595Z,8.80
2018-11-01T16:17:44.894Z,8.80
2018-11-01T16:20:13.052Z,8.70
2018-11-01T16:22:41.668Z,8.60
2018-11-01T16:25:09.748Z,8.60
2018-11-01T16:27:37.940Z,8.40
2018-11-01T16:30:07.272Z,8.30
2018-11-01T16:32:35.413Z,8.30
2018-11-01T16:35:03.568Z,8.40
2018-11-01T16:37:31.664Z,8.30
2018-11-01T16:40:00.018Z,8.30
2018-11-01T16:42:28.272Z,8.10
2018-11-01T16:44:56.306Z,8.10
2018-11-01T16:47:24.528Z,7.90
2018-11-01T16:49:52.812Z,7.80
2018-11-01T16:52:21.120Z,7.70
2018-11-01T16:54:49.302Z,7.50
2018-11-01T16:57:17.636Z,7.40
2018-11-01T16:59:45.861Z,7.20
2018-11-01T17:02:14.032Z,7.20
2018-11-01T17:04:42.255Z,7.10
2018-11-01T17:07:10.353Z,7.10
2018-11-01T17:09:38.607Z,7.00
2018-11-01T17:12:06.703Z,7.00
2018-11-01T17:14:34.913Z,6.90
2018-11-01T17:17:03.109Z,6.90
2018-11-01T17:19:31.398Z,6.90
2018-11-01T17:21:59.556Z,6.80
2018-11-01T17:24:27.724Z,6.80
2018-11-01T17:26:55.892Z,6.80
2018-11-01T17:29:24.032Z,6.80
2018-11-01T17:31:52.160Z,6.70
2018-11-01T17:34:20.337Z,6.70
2018-11-01T17:36:48.545Z,6.60
2018-11-01T17:39:16.677Z,6.70
2018-11-01T17:41:44.864Z,6.70
2018-11-01T17:44:12.960Z,6.50
2018-11-01T17:46:41.177Z,6.40
2018-11-01T17:49:09.558Z,6.20
2018-11-01T17:51:37.749Z,6.20
2018-11-01T17:54:05.847Z,6.20
2018-11-01T17:56:34.053Z,6.10
2018-11-01T17:59:02.177Z,6.00
2018-11-01T18:01:30.291Z,5.90
2018-11-01T18:03:58.405Z,5.90
2018-11-01T18:06:26.542Z,5.90
2018-11-01T18:08:54.655Z,5.80
2018-11-01T18:11:22.793Z,5.70
2018-11-01T18:13:50.904Z,5.70
2018-11-01T18:16:18.977Z,5.70
2018-11-01T18:18:47.074Z,5.70
2018-11-01T18:21:15.192Z,5.60
2018-11-01T18:23:43.384Z,5.60
2018-11-01T18:26:11.599Z,5.50
2018-11-01T18:28:39.772Z,5.40
2018-11-01T18:31:07.847Z,5.40
2018-11-01T18:33:36.038Z,5.30
2018-11-01T18:36:04.621Z,5.30
2018-11-01T18:38:32.821Z,5.30
2018-11-01T18:41:01.057Z,5.30
2018-11-01T18:43:29.157Z,5.30
2018-11-01T18:45:57.254Z,5.30
2018-11-01T18:48:25.462Z,5.20
2018-11-01T18:50:53.546Z,5.20
2018-11-01T18:53:21.625Z,5.20
2018-11-01T18:55:49.840Z,5.20
2018-11-01T18:58:17.936Z,5.20
2018-11-01T19:00:46.083Z,5.20
2018-11-01T19:03:14.140Z,5.20
2018-11-01T19:05:42.224Z,5.10
2018-11-01T19:08:10.520Z,5.00
2018-11-01T19:10:38.582Z,5.10
2018-11-01T19:13:06.665Z,5.10
2018-11-01T19:15:34.791Z,5.10
2018-11-01T19:18:03.048Z,5.10
2018-11-01T19:20:31.246Z,5.10
2018-11-01T19:22:59.329Z,5.10
2018-11-01T19:25:27.458Z,5.10
2018-11-01T19:27:55.591Z,5.10
2018-11-01T19:30:23.645Z,5.10
2018-11-01T19:32:51.812Z,5.10
2018-11-01T19:35:19.893Z,5.10
2018-11-01T19:37:48.194Z,5.10
2018-11-01T19:40:16.497Z,5.20
2018-11-01T19:42:45.009Z,5.30
2018-11-01T19:45:13.097Z,5.30
2018-11-01T19:47:41.365Z,5.30
2018-11-01T19:50:11.321Z,5.30
2018-11-01T19:52:39.480Z,5.30
2018-11-01T19:55:09.247Z,5.30
2018-11-01T19:57:39.677Z,5.30
2018-11-01T20:00:09.801Z,5.30
2018-11-01T20:02:38.066Z,5.30
2018-11-01T20:05:06.905Z,5.30
2018-11-01T20:07:35.025Z,5.40
2018-11-01T20:10:03.195Z,5.40
2018-11-01T20:12:31.248Z,5.40
2018-11-01T20:14:59.604Z,5.50
2018-11-01T20:17:27.544Z,5.50
2018-11-01T20:19:55.637Z,5.50
2018-11-01T20:22:23.721Z,5.50
2018-11-01T20:24:51.924Z,5.50
2018-11-01T20:27:20.109Z,5.50
2018-11-01T20:29:48.204Z,5.60
2018-11-01T20:32:16.334Z,5.60
2018-11-01T20:34:44.511Z,5.60
2018-11-01T20:37:14.835Z,5.60
2018-11-01T20:39:44.888Z,5.60
2018-11-01T20:42:14.233Z,5.50
2018-11-01T20:44:42.590Z,5.60
2018-11-01T20:47:10.822Z,5.60
2018-11-01T20:49:38.973Z,5.60
2018-11-01T20:52:07.132Z,5.60
2018-11-01T20:54:35.321Z,5.70
2018-11-01T20:57:03.497Z,5.70
2018-11-01T20:59:31.580Z,5.70
2018-11-01T21:01:59.656Z,5.70
2018-11-01T21:04:27.874Z,5.70
2018-11-01T21:06:55.962Z,5.70
2018-11-01T21:09:24.174Z,5.80
2018-11-01T21:11:52.416Z,5.80
2018-11-01T21:14:20.353Z,5.80
2018-11-01T21:16:48.559Z,5.80
2018-11-01T21:19:16.708Z,5.80
2018-11-01T21:21:45.857Z,5.90
2018-11-01T21:24:14.052Z,5.90
2018-11-01T21:26:42.229Z,5.90
2018-11-01T21:29:10.377Z,6.00
2018-11-01T21:31:38.453Z,6.00
2018-11-01T21:34:06.597Z,6.00
2018-11-01T21:36:34.756Z,6.00
2018-11-01T21:39:02.920Z,6.00
2018-11-01T21:41:31.037Z,6.00
2018-11-01T21:43:59.232Z,6.10
2018-11-01T21:46:27.394Z,6.10
2018-11-01T21:48:55.461Z,6.10
2018-11-01T21:51:23.665Z,6.00
2018-11-01T21:53:51.768Z,6.00
2018-11-01T21:56:19.871Z,6.00
2018-11-01T21:58:47.973Z,6.00
2018-11-01T22:01:16.133Z,6.00
2018-11-01T22:03:44.202Z,6.00
2018-11-01T22:06:13.512Z,6.00
2018-11-01T22:08:41.613Z,6.10
2018-11-01T22:11:09.802Z,6.10
2018-11-01T22:13:38.118Z,6.10
2018-11-01T22:16:06.752Z,6.10
2018-11-01T22:18:34.862Z,6.10
2018-11-01T22:21:02.998Z,6.20
2018-11-01T22:23:31.125Z,6.20
2018-11-01T22:25:59.263Z,6.20
2018-11-01T22:28:27.361Z,6.20
2018-11-01T22:30:55.439Z,6.20
2018-11-01T22:33:23.776Z,6.20
2018-11-01T22:35:51.862Z,6.30
2018-11-01T22:38:19.970Z,6.40
2018-11-01T22:40:48.264Z,6.50
2018-11-01T22:43:16.434Z,6.50
2018-11-01T22:45:44.568Z,6.50
2018-11-01T22:48:12.817Z,6.60
2018-11-01T22:50:40.902Z,6.60
2018-11-01T22:53:09.010Z,6.50
2018-11-01T22:55:37.090Z,6.50
2018-11-01T22:58:05.264Z,6.40
2018-11-01T23:00:33.473Z,6.30
2018-11-01T23:03:01.726Z,6.30
2018-11-01T23:05:29.813Z,6.30
2018-11-01T23:07:57.908Z,6.30
2018-11-01T23:10:26.036Z,6.30
2018-11-01T23:12:54.263Z,6.40
2018-11-01T23:15:22.373Z,6.30
2018-11-01T23:17:50.684Z,6.40
2018-11-01T23:20:18.792Z,6.40
2018-11-01T23:22:46.886Z,6.50
2018-11-01T23:25:15.024Z,6.50
2018-11-01T23:27:43.184Z,6.50
2018-11-01T23:30:11.336Z,6.50
2018-11-01T23:32:39.488Z,6.60
2018-11-01T23:35:07.560Z,6.80
2018-11-01T23:37:41.065Z,6.80
2018-11-01T23:40:14.498Z,6.70
2018-11-01T23:42:48.130Z,6.80
2018-11-01T23:45:21.811Z,7.00
2018-11-01T23:47:55.374Z,7.20
2018-11-01T23:50:26.252Z,7.30
2018-11-01T23:52:57.717Z,7.40
2018-11-01T23:55:25.839Z,7.60
2018-11-01T23:57:53.938Z,7.60
